Latest Weather Observations for Batchelor

IDD60901

Issued at 6:41 pm CST Saturday 16 December 2017 (issued every 10 minutes, with the page automatically refreshed every 10 minutes)

About weather observations | Map of Darwin area stations | Latest observations for Darwin area | Other Formats
Station Details ID: 014272 Name: BATCHELOR AIRPORT Lat: -13.05 Lon: 131.03 Height: 104.0 m
Data from the previous 72 hours. | See also: Recent months at Batchelor
Date/Time
CST
Temp
°C
App
Temp
°C
Dew
Point
°C
Rel
Hum
%
Delta-T
°C
Wind Press
QNH
hPa
Press
MSL
hPa
Rain since
9am
mm
Dir  Spd
km/h
Gust
km/h
Spd
kts
Gust
kts
16/06:30pm 29.0 31.3 20.7 61 5.5 NNW 9 13 5 7 1006.5 1005.7 0.0
16/06:00pm 29.4 30.1 20.5 58 5.9 NNW 17 30 9 16 1006.6 1005.8 0.0
16/05:30pm 31.2 32.2 21.1 55 6.8 N 17 26 9 14 1006.1 1005.3 0.0
16/05:00pm 34.8 37.4 20.0 42 9.9 E 6 7 3 4 1005.7 1004.9 0.0
16/04:30pm 34.9 37.1 19.7 41 10.2 SE 7 13 4 7 1005.7 1004.9 0.0
16/04:00pm 34.7 37.0 20.6 43 9.5 ESE 9 17 5 9 1005.6 1004.8 0.0
16/03:30pm 34.4 36.6 21.1 45 9.0 SE 11 17 6 9 1005.9 1005.1 0.0
16/03:00pm 34.2 36.5 21.3 47 8.8 ESE 11 17 6 9 1006.5 1005.7 0.0
16/02:30pm 34.0 35.8 21.1 47 8.8 E 13 17 7 9 1006.9 1006.1 0.0
16/02:00pm 33.7 36.5 21.5 49 8.3 ESE 9 15 5 8 1007.6 1006.8 0.0
16/01:30pm 33.8 35.7 20.6 46 8.9 E 11 17 6 9 1008.0 1007.2 0.0
16/01:00pm 33.9 37.9 22.7 52 7.7 ESE 6 19 3 10 1008.3 1007.5 0.0
16/12:30pm 33.2 36.7 22.9 54 7.1 SE 9 15 5 8 1008.7 1007.9 0.0
16/12:00pm 32.3 34.7 20.9 51 7.7 ESE 9 15 5 8 1009.3 1008.6 0.0
16/11:30am 32.3 35.6 21.8 54 7.2 NE 7 11 4 6 1009.7 1009.0 0.0
16/11:00am 31.4 34.9 22.1 57 6.3 NNE 7 11 4 6 1010.2 1009.5 0.0
16/10:30am 30.5 34.3 22.4 62 5.5 N 6 7 3 4 1010.5 1009.8 0.0
16/10:00am 29.4 33.0 22.1 65 5.0 ENE 6 7 3 4 1010.8 1010.1 0.0
16/09:30am 29.5 33.8 22.0 64 5.1 SSW 2 6 1 3 1010.9 1010.2 0.0
16/09:00am 27.2 31.7 21.5 71 3.8 CALM 0 0 0 0 1011.1 1010.4 5.8
16/08:30am 25.6 30.3 21.9 80 2.5 CALM 0 0 0 0 1010.9 1010.2 5.8
16/08:00am 25.0 29.0 21.3 80 2.5 SW 2 4 1 2 1010.8 1010.1 5.8
16/07:30am 24.8 28.4 21.3 81 2.3 WSW 4 6 2 3 1010.6 1009.9 5.8
16/07:00am 24.4 28.1 21.5 84 1.9 SE 4 6 2 3 1010.4 1009.7 5.8
16/06:30am 24.6 28.6 22.7 89 1.3 N 6 9 3 5 1010.1 1009.4 5.8
16/06:00am 24.9 28.5 22.4 86 1.7 SE 7 15 4 8 1009.4 1008.7 5.6
16/05:30am 24.6 29.2 23.2 92 1.0 S 4 7 2 4 1009.2 1008.5 5.6
16/05:00am 24.4 28.3 23.0 92 0.9 SE 7 13 4 7 1009.0 1008.3 5.6
16/04:30am 24.5 28.0 22.8 90 1.2 ESE 9 13 5 7 1008.8 1008.0 5.6
16/04:00am 24.7 27.2 22.4 87 1.5 ENE 13 19 7 10 1008.7 1007.9 5.6
16/03:30am 24.6 26.5 22.8 90 1.2 E 17 24 9 13 1008.6 1007.8 5.6
16/03:00am 25.1 30.5 23.2 89 1.3 CALM 0 2 0 1 1007.8 1007.0 5.6
16/02:30am 24.8 29.0 23.2 91 1.1 W 6 9 3 5 1007.8 1007.0 5.6
16/02:00am 25.2 29.5 23.3 89 1.3 NE 6 17 3 9 1008.5 1007.7 2.8
16/01:30am 25.7 30.9 23.6 88 1.4 NNE 2 4 1 2 1008.7 1007.9 0.2
16/01:00am 26.1 30.3 23.4 85 1.8 ENE 7 13 4 7 1009.1 1008.4 0.2
16/12:30am 26.7 29.1 23.0 80 2.5 E 15 24 8 13 1009.2 1008.5 0.2
16/12:00am 27.5 32.7 22.9 76 3.1 CALM 0 0 0 0 1008.5 1007.7 0.2
 
Date/Time
CST
Temp
°C
App
Temp
°C
Dew
Point
°C
Rel
Hum
%
Delta-T
°C
Wind Press
QNH
hPa
Press
MSL
hPa
Rain since
9am
mm
Dir  Spd
km/h
Gust
km/h
Spd
kts
Gust
kts
15/11:30pm 27.6 32.1 23.0 76 3.1 W 4 6 2 3 1008.1 1007.3 0.2
15/11:00pm 27.6 33.2 23.6 79 2.8 CALM 0 0 0 0 1008.2 1007.4 0.2
15/10:30pm 27.8 32.9 23.4 77 3.0 WNW 2 4 1 2 1007.9 1007.1 0.2
15/10:00pm 28.2 33.4 23.6 76 3.2 WNW 2 4 1 2 1007.8 1007.0 0.2
15/09:30pm 28.4 33.1 23.3 74 3.5 WNW 4 6 2 3 1007.7 1006.9 0.2
15/09:00pm 28.5 34.3 23.9 76 3.2 CALM 0 4 0 2 1007.1 1006.3 0.2
15/08:30pm 28.8 34.7 24.1 76 3.3 CALM 0 0 0 0 1006.9 1006.1 0.2
15/08:00pm 29.4 35.6 25.2 78 3.0 WNW 2 4 1 2 1006.6 1005.8 0.2
15/07:30pm 30.1 35.3 23.5 67 4.6 WNW 2 2 1 1 1006.3 1005.5 0.2
15/07:00pm 31.3 35.4 22.3 58 6.1 WNW 4 6 2 3 1006.1 1005.3 0.2
15/06:30pm 32.4 35.8 21.6 53 7.3 W 6 9 3 5 1005.9 1005.1 0.2
15/06:00pm 33.3 36.6 21.5 50 8.0 WSW 6 9 3 5 1005.6 1004.8 0.2
15/05:30pm 33.5 37.1 22.0 51 7.9 W 6 9 3 5 1005.6 1004.8 0.2
15/05:00pm 33.4 37.1 22.5 52 7.5 WSW 7 15 4 8 1005.6 1004.8 0.2
15/04:30pm 33.6 36.8 22.4 52 7.7 WSW 9 17 5 9 1005.5 1004.7 0.2
15/04:00pm 33.2 36.8 22.3 52 7.5 WSW 7 15 4 8 1005.5 1004.7 0.2
15/03:30pm 33.4 37.0 23.1 54 7.2 W 9 15 5 8 1005.6 1004.8 0.2
15/03:00pm 33.5 37.4 22.9 53 7.4 W 7 13 4 7 1005.8 1005.0 0.2
15/02:30pm 33.6 37.9 23.6 56 7.0 WNW 7 20 4 11 1006.1 1005.3 0.2
15/02:00pm 33.1 36.1 21.9 51 7.6 WNW 9 17 5 9 1006.5 1005.7 0.2
15/01:30pm 32.4 35.9 21.9 54 7.2 SW 6 11 3 6 1006.8 1006.0 0.2
15/01:00pm 31.4 35.5 23.0 61 5.8 N 6 9 3 5 1007.0 1006.2 0.2
15/12:30pm 31.0 35.3 22.6 61 5.8 NW 4 11 2 6 1007.6 1006.8 0.2
15/12:00pm 30.2 34.4 22.4 63 5.3 NNW 4 9 2 5 1008.2 1007.4 0.2
15/11:30am 29.5 33.8 22.0 64 5.1 N 2 6 1 3 1008.5 1007.7 0.2
15/11:00am 28.9 32.6 21.4 64 5.0 E 4 6 2 3 1008.9 1008.1 0.0
15/10:30am 28.2 33.0 22.2 70 4.1 CALM 0 4 0 2 1009.5 1008.8 0.0
15/10:00am 27.7 31.4 22.2 72 3.7 E 6 7 3 4 1009.7 1009.0 0.0
15/09:30am 26.8 31.2 22.8 79 2.7 S 4 6 2 3 1010.2 1009.5 0.0
15/09:00am 26.0 30.1 22.9 83 2.1 S 6 7 3 4 1010.5 1009.8 3.6
15/08:30am 25.4 29.6 23.1 87 1.6 SSW 6 9 3 5 1010.4 1009.7 3.6
15/08:00am 25.1 28.9 22.8 87 1.6 S 7 13 4 7 1010.3 1009.6 3.6
15/07:30am 24.9 28.7 22.8 88 1.4 SW 7 15 4 8 1010.1 1009.4 3.6
15/07:00am 25.2 28.4 23.1 88 1.4 SSE 11 19 6 10 1009.5 1008.8 3.6
15/06:30am 25.7 30.5 24.5 93 0.8 SE 7 9 4 5 1009.3 1008.6 2.8
15/06:00am 25.5 30.8 24.3 93 0.8 SSE 4 9 2 5 1008.9 1008.1 2.8
15/05:30am 25.5 30.1 24.1 92 1.0 S 7 13 4 7 1008.7 1007.9 2.8
15/05:00am 25.6 30.4 24.2 92 1.0 SW 6 9 3 5 1007.9 1007.1 2.8
15/04:30am 26.2 31.7 24.1 88 1.5 NW 2 4 1 2 1007.8 1007.0 0.0
15/04:00am 26.0 31.0 23.9 88 1.4 NW 4 6 2 3 1007.3 1006.5 0.0
15/03:30am 25.8 30.3 23.7 88 1.4 NW 6 7 3 4 1007.0 1006.2 0.0
15/03:00am 25.6 29.9 23.3 87 1.6 NNW 6 7 3 4 1006.8 1006.0 0.0
15/02:30am 25.8 30.2 23.5 87 1.6 N 6 9 3 5 1006.4 1005.6 0.0
15/02:00am 25.6 29.9 23.3 87 1.6 NNW 6 6 3 3 1006.9 1006.1 0.0
15/01:30am 25.8 30.5 23.3 86 1.7 WSW 4 6 2 3 1007.4 1006.6 0.0
15/01:00am 26.0 31.6 23.5 86 1.7 CALM 0 0 0 0 1008.2 1007.4 0.0
15/12:30am 26.1 31.3 22.8 82 2.2 CALM 0 0 0 0 1008.2 1007.4 0.0
15/12:00am 26.5 31.6 22.6 79 2.6 CALM 0 0 0 0 1008.5 1007.7 0.0
 
Date/Time
CST
Temp
°C
App
Temp
°C
Dew
Point
°C
Rel
Hum
%
Delta-T
°C
Wind Press
QNH
hPa
Press
MSL
hPa
Rain since
9am
mm
Dir  Spd
km/h
Gust
km/h
Spd
kts
Gust
kts
14/11:30pm 26.8 31.2 22.8 79 2.7 WSW 4 6 2 3 1008.4 1007.6 0.0
14/11:00pm 26.9 31.0 22.3 76 3.1 NW 4 6 2 3 1008.2 1007.4 0.0
14/10:30pm 27.2 31.1 22.6 76 3.1 NW 6 6 3 3 1007.8 1007.0 0.0
14/10:00pm 27.4 31.4 22.1 73 3.6 WNW 4 7 2 4 1007.7 1006.9 0.0
14/09:30pm 27.1 31.5 22.1 74 3.4 WNW 2 6 1 3 1007.6 1006.8 0.0
14/09:00pm 27.4 32.0 21.7 71 3.8 CALM 0 4 0 2 1007.1 1006.3 0.0
14/08:30pm 27.6 32.0 22.1 72 3.7 NW 2 4 1 2 1006.9 1006.1 0.0
14/08:00pm 28.3 32.2 21.8 68 4.4 NW 4 6 2 3 1006.9 1006.1 0.0
14/07:30pm 28.8 32.6 21.6 65 4.9 NNW 4 6 2 3 1006.6 1005.8 0.0
14/07:00pm 29.6 32.7 21.0 60 5.7 WNW 6 9 3 5 1006.4 1005.6 0.0
14/06:30pm 30.8 33.9 21.0 56 6.6 W 6 9 3 5 1006.0 1005.2 0.0
14/06:00pm 30.8 33.8 21.3 57 6.4 WSW 7 13 4 7 1005.5 1004.7 0.0
14/05:30pm 30.1 33.2 21.5 60 5.8 W 7 13 4 7 1005.2 1004.4 0.0
14/05:00pm 30.3 32.5 21.1 58 6.2 WNW 11 17 6 9 1005.3 1004.5 0.0
14/04:30pm 30.9 34.1 21.7 58 6.2 WNW 7 11 4 6 1005.6 1004.8 0.0
14/04:00pm 31.6 34.0 20.8 52 7.2 WSW 9 19 5 10 1005.5 1004.7 0.0
14/03:30pm 34.6 38.4 20.2 43 9.7 CALM 0 2 0 1 1005.4 1004.6 0.0
14/03:00pm 34.6 36.3 18.6 38 10.5 N 7 11 4 6 1005.6 1004.8 0.0
14/02:30pm 35.3 38.1 20.4 41 10.1 W 6 11 3 6 1006.0 1005.2 0.0
14/02:00pm 34.5 37.3 20.8 44 9.3 WSW 7 11 4 6 1006.5 1005.7 0.0
14/01:30pm 34.1 37.6 22.2 50 8.2 NNW 7 13 4 7 1007.1 1006.3 0.0
14/01:00pm 34.3 38.4 23.3 52 7.7 NNW 7 13 4 7 1007.4 1006.6 0.0
14/12:30pm 33.4 37.1 22.5 52 7.5 WSW 7 15 4 8 1007.9 1007.1 0.0
14/12:00pm 33.1 37.8 23.4 56 6.8 NNW 4 7 2 4 1008.4 1007.6 0.0
14/11:30am 32.5 36.4 22.6 56 6.8 W 6 15 3 8 1009.0 1008.3 0.0
14/11:00am 31.6 34.8 21.7 55 6.7 NW 7 13 4 7 1009.5 1008.8 0.0
14/10:30am 31.0 34.4 22.0 58 6.1 NW 7 11 4 6 1009.9 1009.2 0.0
14/10:00am 29.9 32.6 20.7 57 6.1 NNW 7 9 4 5 1009.8 1009.1 0.0
14/09:30am 29.3 32.6 21.5 63 5.3 W 6 7 3 4 1010.0 1009.3 0.0
14/09:00am 28.3 31.6 20.8 63 5.0 NW 4 6 2 3 1010.2 1009.5 15.8
14/08:30am 27.6 30.9 21.4 69 4.1 NNW 6 7 3 4 1010.2 1009.5 15.8
14/08:00am 26.3 29.9 21.3 74 3.3 W 4 6 2 3 1009.8 1009.1 15.8
14/07:30am 24.9 28.6 21.4 81 2.3 SW 4 6 2 3 1009.1 1008.4 15.8
14/07:00am 23.7 27.8 21.6 88 1.4 SW 2 4 1 2 1008.8 1008.0 15.8
14/06:30am 23.1 27.0 21.2 89 1.3 SW 2 4 1 2 1008.6 1007.8 15.8
14/06:00am 23.3 26.9 21.2 88 1.4 SW 4 6 2 3 1008.5 1007.7 15.8
14/05:30am 23.4 27.4 21.3 88 1.4 NNE 2 4 1 2 1008.1 1007.3 15.8
14/05:00am 23.4 27.7 21.1 87 1.5 CALM 0 0 0 0 1008.2 1007.4 15.8
14/04:30am 23.6 27.0 20.9 85 1.8 NNE 4 4 2 2 1007.8 1007.0 15.8
14/04:00am 24.3 28.4 20.8 81 2.3 CALM 0 4 0 2 1007.8 1007.0 15.8
14/03:30am 24.2 27.0 20.5 80 2.4 N 6 9 3 5 1008.3 1007.5 15.8
14/03:00am 24.4 26.5 20.1 77 2.8 NNE 9 19 5 10 1008.1 1007.3 15.8
14/02:30am 24.3 26.7 20.8 81 2.3 NNE 9 20 5 11 1008.8 1008.0 15.8
14/02:00am 24.4 26.8 21.5 84 1.9 ENE 11 20 6 11 1009.1 1008.4 15.8
14/01:53am 24.6 27.0 21.5 83 2.1 NE 11 19 6 10 1009.2 1008.5 15.8
14/01:30am 24.4 27.5 22.1 87 1.5 N 9 15 5 8 1007.2 1006.4 15.8
14/01:00am 24.4 28.0 22.3 88 1.4 N 7 13 4 7 1006.9 1006.1 15.8
14/12:30am 24.3 28.1 22.4 89 1.3 NNW 6 9 3 5 1007.9 1007.1 15.8
14/12:00am 24.4 28.1 22.5 89 1.3 NNW 7 9 4 5 1009.4 1008.7 15.8
 
Date/Time
CST
Temp
°C
App
Temp
°C
Dew
Point
°C
Rel
Hum
%
Delta-T
°C
Wind Press
QNH
hPa
Press
MSL
hPa
Rain since
9am
mm
Dir  Spd
km/h
Gust
km/h
Spd
kts
Gust
kts
13/11:30pm 24.2 28.1 22.5 90 1.1 NNW 6 7 3 4 1010.2 1009.5 15.8
13/11:00pm 24.1 28.4 22.0 88 1.4 SSE 2 6 1 3 1010.5 1009.8 15.8
13/10:30pm 23.4 26.7 21.5 89 1.3 SE 6 7 3 4 1009.7 1009.0 15.8
13/10:00pm 23.2 24.3 20.5 85 1.8 SE 15 20 8 11 1010.0 1009.3 15.8
13/09:30pm 22.9 26.2 20.8 88 1.4 E 4 7 2 4 1009.2 1008.5 15.4
13/09:00pm 22.7 25.0 19.5 82 2.1 N 6 9 3 5 1008.4 1007.6 15.2
13/08:30pm 22.3 22.3 18.9 81 2.2 NW 17 24 9 13 1008.6 1007.8 15.0
13/08:00pm 23.4 20.9 18.9 76 2.9 E 30 43 16 23 1009.9 1009.2 0.0
13/07:41pm 26.8 25.4 20.4 68 4.2 ESE 28 41 15 22 1008.9 1008.1 0.0
13/07:30pm 29.7 32.8 22.2 64 5.1 ENE 9 20 5 11 1008.3 1007.5 0.0
13/07:00pm 30.1 32.7 22.0 62 5.5 NNW 11 19 6 10 1007.1 1006.3 0.0

Latest Capital City Observations: Canberra | Sydney | Melbourne | Brisbane | Adelaide | Perth | Hobart | Darwin

Other Formats:

Comma delimited format used in spreadsheet applications
http://www.bom.gov.au/fwo/IDD60901/IDD60901.94125.axf

JavaScript Object Notation format (JSON) in row-major order
http://www.bom.gov.au/fwo/IDD60901/IDD60901.94125.json